Time;durP1;ratioP1;P1;durP2;ratioP2;P2;SDS_P1;SDS_P2;PMS_P1;PMS_P2;Temp;Humidity;BMP_temperature;BMP_pressure;BME280_temperature;BME280_humidity;BME280_pressure;Samples;Min_cycle;Max_cycle;Signal;HPM_P1;HPM_P2
2022/09/09 00:02:10;;;;;;;5.82;3.88;;;;;;;;;;5070881;28;20428;-72
2022/09/09 00:04:37;;;;;;;8.52;5.00;;;;;;;;;;5071781;28;20032;-72
2022/09/09 00:07:14;;;;;;;6.10;4.00;;;;;;;;;;5071279;28;20531;-72
2022/09/09 00:09:49;;;;;;;7.75;5.18;;;;;;;;;;5071505;28;20386;-72
2022/09/09 00:12:23;;;;;;;7.85;4.60;;;;;;;;;;5071214;28;20035;-73
2022/09/09 00:14:55;;;;;;;6.60;4.72;;;;;;;;;;5053474;28;20043;-72
2022/09/09 00:17:41;;;;;;;6.07;3.75;;;;;;;;;;5070373;28;20096;-73
2022/09/09 00:20:10;;;;;;;6.72;4.75;;;;;;;;;;5070066;28;20060;-73
2022/09/09 00:22:38;;;;;;;7.10;4.93;;;;;;;;;;5070991;28;20031;-73
2022/09/09 00:25:37;;;;;;;9.00;5.05;;;;;;;;;;5070845;28;20086;-73
2022/09/09 00:28:11;;;;;;;9.27;4.78;;;;;;;;;;5076568;28;20114;-73
2022/09/09 00:30:38;;;;;;;6.70;4.95;;;;;;;;;;5071727;28;20055;-73
2022/09/09 00:33:15;;;;;;;8.55;5.35;;;;;;;;;;5066478;28;20016;-72
2022/09/09 00:36:00;;;;;;;8.90;4.43;;;;;;;;;;5069947;28;20422;-73
2022/09/09 00:38:26;;;;;;;7.38;4.40;;;;;;;;;;5070839;28;20577;-72
2022/09/09 00:41:12;;;;;;;7.70;4.47;;;;;;;;;;5071133;28;20028;-72
2022/09/09 00:43:40;;;;;;;7.03;4.43;;;;;;;;;;5067259;28;20421;-72
2022/09/09 00:46:25;;;;;;;8.18;4.50;;;;;;;;;;5069654;28;20479;-72
2022/09/09 00:48:59;;;;;;;7.40;4.25;;;;;;;;;;5070980;28;20020;-72
2022/09/09 00:51:41;;;;;;;9.57;4.55;;;;;;;;;;5070551;28;20037;-71
2022/09/09 00:54:26;;;;;;;6.10;4.40;;;;;;;;;;5068191;28;20052;-72
2022/09/09 00:57:07;;;;;;;8.02;3.90;;;;;;;;;;5071518;28;20027;-72
2022/09/09 00:59:41;;;;;;;8.38;4.55;;;;;;;;;;5071267;28;20021;-72
2022/09/09 01:02:25;;;;;;;7.82;4.50;;;;;;;;;;5071356;28;20052;-71
2022/09/09 01:04:51;;;;;;;7.88;4.30;;;;;;;;;;5060921;28;20043;-72
2022/09/09 01:07:18;;;;;;;8.23;3.83;;;;;;;;;;5070589;28;20549;-72
2022/09/09 01:09:58;;;;;;;7.78;3.45;;;;;;;;;;5071033;28;20103;-71
2022/09/09 01:12:26;;;;;;;9.27;3.63;;;;;;;;;;5070274;28;20028;-71
2022/09/09 01:15:14;;;;;;;5.90;2.63;;;;;;;;;;5070157;28;20036;-72
2022/09/09 01:17:46;;;;;;;6.07;3.47;;;;;;;;;;5069611;28;20024;-72
2022/09/09 01:20:21;;;;;;;6.53;2.95;;;;;;;;;;5069761;28;20505;-72
2022/09/09 01:23:06;;;;;;;6.47;3.10;;;;;;;;;;5069974;28;20020;-73
2022/09/09 01:25:44;;;;;;;7.03;3.00;;;;;;;;;;5070461;28;20140;-72
2022/09/09 01:28:16;;;;;;;6.30;3.13;;;;;;;;;;5070168;28;20092;-73
2022/09/09 01:30:42;;;;;;;5.95;3.55;;;;;;;;;;5058654;28;20023;-73
2022/09/09 01:33:13;;;;;;;7.38;3.67;;;;;;;;;;5069619;28;20031;-72
2022/09/09 01:35:42;;;;;;;8.15;3.78;;;;;;;;;;5070544;28;20044;-73
2022/09/09 01:38:08;;;;;;;6.55;2.50;;;;;;;;;;5070044;28;20024;-72
2022/09/09 01:40:34;;;;;;;6.45;3.35;;;;;;;;;;5059828;28;20112;-72
2022/09/09 01:43:00;;;;;;;9.43;3.22;;;;;;;;;;5049775;28;20119;-72
2022/09/09 01:45:26;;;;;;;4.43;2.53;;;;;;;;;;5068439;28;20044;-72
2022/09/09 01:47:53;;;;;;;5.43;3.28;;;;;;;;;;5070132;28;20878;-72
2022/09/09 01:50:20;;;;;;;7.50;2.63;;;;;;;;;;5070084;28;20047;-72
2022/09/09 01:52:48;;;;;;;4.78;2.47;;;;;;;;;;5069722;28;20043;-72
2022/09/09 01:55:14;;;;;;;4.57;2.60;;;;;;;;;;5070062;28;20467;-71
2022/09/09 01:57:50;;;;;;;7.25;2.50;;;;;;;;;;5070415;28;20501;-71
2022/09/09 02:00:16;;;;;;;4.95;2.55;;;;;;;;;;5068971;28;20375;-72
2022/09/09 02:03:00;;;;;;;6.18;2.42;;;;;;;;;;5069160;28;20032;-72
2022/09/09 02:05:26;;;;;;;4.57;2.17;;;;;;;;;;5069671;28;20036;-71
2022/09/09 02:07:57;;;;;;;5.57;2.55;;;;;;;;;;5068705;28;20024;-73
2022/09/09 02:10:36;;;;;;;6.45;2.78;;;;;;;;;;5070491;28;20025;-72
2022/09/09 02:13:05;;;;;;;5.40;2.73;;;;;;;;;;5069941;28;20036;-73
2022/09/09 02:15:31;;;;;;;8.38;3.72;;;;;;;;;;5069862;28;20024;-72
2022/09/09 02:17:58;;;;;;;5.18;2.83;;;;;;;;;;5069986;28;20021;-72
2022/09/09 02:20:27;;;;;;;5.75;2.72;;;;;;;;;;5069144;28;20041;-72
2022/09/09 02:22:53;;;;;;;6.10;2.67;;;;;;;;;;5069491;28;20048;-72
2022/09/09 02:25:21;;;;;;;6.45;2.83;;;;;;;;;;5070249;28;20064;-72
2022/09/09 02:27:50;;;;;;;6.43;3.00;;;;;;;;;;5070193;28;20031;-72
2022/09/09 02:30:16;;;;;;;5.82;3.20;;;;;;;;;;5070180;28;20021;-73
2022/09/09 02:32:43;;;;;;;5.30;2.78;;;;;;;;;;5065291;28;20017;-70
2022/09/09 02:35:11;;;;;;;5.45;3.35;;;;;;;;;;5057119;28;20040;-72
2022/09/09 02:37:39;;;;;;;8.50;3.47;;;;;;;;;;5068571;28;20035;-72
2022/09/09 02:40:06;;;;;;;7.00;3.13;;;;;;;;;;5066181;28;20058;-71
2022/09/09 02:42:33;;;;;;;6.25;3.58;;;;;;;;;;5072359;28;20048;-73
2022/09/09 02:44:59;;;;;;;5.57;3.22;;;;;;;;;;5072814;28;20047;-73
2022/09/09 02:47:32;;;;;;;6.45;3.75;;;;;;;;;;5073252;28;20017;-72
2022/09/09 02:50:03;;;;;;;5.75;4.00;;;;;;;;;;5072444;28;20604;-71
2022/09/09 02:52:51;;;;;;;6.65;3.65;;;;;;;;;;5072492;28;20107;-72
2022/09/09 02:55:21;;;;;;;7.53;4.82;;;;;;;;;;5073086;28;20032;-74
2022/09/09 02:57:47;;;;;;;5.65;3.58;;;;;;;;;;5072843;28;20032;-73
2022/09/09 03:00:14;;;;;;;7.18;3.70;;;;;;;;;;5073301;28;20021;-73
2022/09/09 03:02:42;;;;;;;9.18;3.92;;;;;;;;;;5072793;28;20028;-72
2022/09/09 03:05:08;;;;;;;6.03;4.38;;;;;;;;;;5072601;28;20029;-72
2022/09/09 03:07:34;;;;;;;6.10;3.63;;;;;;;;;;5071952;28;20105;-73
2022/09/09 03:10:00;;;;;;;8.32;4.22;;;;;;;;;;5073338;28;20020;-72
2022/09/09 03:12:26;;;;;;;7.10;4.30;;;;;;;;;;5072664;28;20548;-73
2022/09/09 03:14:52;;;;;;;7.30;3.92;;;;;;;;;;5072503;28;20028;-71
2022/09/09 03:17:18;;;;;;;6.95;4.20;;;;;;;;;;5073146;28;20471;-72
2022/09/09 03:19:44;;;;;;;5.47;3.88;;;;;;;;;;5071922;28;20436;-72
2022/09/09 03:22:13;;;;;;;6.35;4.13;;;;;;;;;;5073005;28;20021;-72
2022/09/09 03:24:40;;;;;;;5.82;3.80;;;;;;;;;;5071765;28;20442;-73
2022/09/09 03:27:06;;;;;;;7.72;4.25;;;;;;;;;;5072308;28;20020;-73
2022/09/09 03:29:32;;;;;;;6.43;4.20;;;;;;;;;;5073260;28;20387;-73
2022/09/09 03:31:59;;;;;;;6.85;4.15;;;;;;;;;;5073273;28;20020;-71
2022/09/09 03:34:25;;;;;;;7.15;4.30;;;;;;;;;;5071933;28;20073;-72
2022/09/09 03:36:51;;;;;;;8.10;4.72;;;;;;;;;;5072722;28;20024;-71
2022/09/09 03:39:17;;;;;;;8.23;4.55;;;;;;;;;;5072322;28;20020;-72
2022/09/09 03:41:46;;;;;;;9.00;4.25;;;;;;;;;;5072237;28;20453;-71
2022/09/09 03:44:12;;;;;;;5.88;3.90;;;;;;;;;;5070746;28;20039;-72
2022/09/09 03:46:38;;;;;;;9.13;4.20;;;;;;;;;;5072931;28;20047;-71
2022/09/09 03:49:04;;;;;;;8.20;4.10;;;;;;;;;;5071758;28;20067;-71
2022/09/09 03:51:30;;;;;;;11.27;4.82;;;;;;;;;;5072032;28;20115;-71
2022/09/09 03:53:57;;;;;;;5.47;3.80;;;;;;;;;;5070363;28;20043;-72
2022/09/09 03:56:30;;;;;;;9.38;4.25;;;;;;;;;;5072185;28;20633;-73
2022/09/09 03:58:56;;;;;;;11.15;5.35;;;;;;;;;;5070948;28;20021;-72
2022/09/09 04:01:22;;;;;;;7.72;4.20;;;;;;;;;;5071742;28;20033;-72
2022/09/09 04:03:48;;;;;;;7.85;4.00;;;;;;;;;;5071324;28;20021;-72
2022/09/09 04:06:15;;;;;;;8.13;4.20;;;;;;;;;;5071479;28;20082;-72
2022/09/09 04:08:41;;;;;;;10.48;4.90;;;;;;;;;;5071609;28;20021;-73
2022/09/09 04:11:07;;;;;;;8.70;4.70;;;;;;;;;;5071833;28;20025;-72
2022/09/09 04:13:34;;;;;;;12.07;4.20;;;;;;;;;;5071073;28;20531;-73
2022/09/09 04:16:01;;;;;;;11.90;4.93;;;;;;;;;;5071974;28;20025;-72
2022/09/09 04:18:31;;;;;;;10.35;4.40;;;;;;;;;;5070145;28;20039;-72
2022/09/09 04:20:57;;;;;;;8.50;4.45;;;;;;;;;;5070855;28;20460;-72
2022/09/09 04:23:24;;;;;;;6.80;3.95;;;;;;;;;;5070244;28;20115;-72
2022/09/09 04:25:51;;;;;;;8.48;3.88;;;;;;;;;;5072507;28;20070;-72
2022/09/09 04:28:18;;;;;;;7.53;4.03;;;;;;;;;;5071577;28;20059;-72
2022/09/09 04:30:44;;;;;;;7.03;4.03;;;;;;;;;;5071385;28;20078;-71
2022/09/09 04:33:11;;;;;;;6.93;3.95;;;;;;;;;;5071441;28;20060;-73
2022/09/09 04:35:37;;;;;;;7.53;4.30;;;;;;;;;;5071308;28;20437;-71
2022/09/09 04:38:03;;;;;;;12.18;4.35;;;;;;;;;;5071319;28;20020;-72
2022/09/09 04:40:32;;;;;;;7.50;4.10;;;;;;;;;;5070343;28;20074;-71
2022/09/09 04:42:59;;;;;;;8.55;3.67;;;;;;;;;;5071132;28;20024;-72
2022/09/09 04:45:25;;;;;;;7.75;4.15;;;;;;;;;;5070813;28;20036;-71
2022/09/09 04:47:52;;;;;;;6.10;3.75;;;;;;;;;;5071632;28;20111;-72
2022/09/09 04:50:18;;;;;;;8.25;4.78;;;;;;;;;;5068481;28;20430;-72
2022/09/09 04:52:44;;;;;;;6.38;3.72;;;;;;;;;;5071726;28;20446;-72
2022/09/09 04:55:12;;;;;;;9.23;4.47;;;;;;;;;;5071307;28;20044;-73
2022/09/09 04:57:40;;;;;;;11.02;4.63;;;;;;;;;;5071796;28;20074;-72
2022/09/09 05:00:07;;;;;;;8.52;4.10;;;;;;;;;;5072456;28;20103;-72
2022/09/09 05:02:33;;;;;;;8.23;3.03;;;;;;;;;;5070377;28;20372;-73
2022/09/09 05:05:00;;;;;;;8.25;4.35;;;;;;;;;;5071421;28;20036;-72
2022/09/09 05:07:28;;;;;;;8.63;4.40;;;;;;;;;;5070646;28;20398;-71
2022/09/09 05:09:55;;;;;;;9.05;4.00;;;;;;;;;;5070994;28;20033;-73
2022/09/09 05:12:23;;;;;;;8.15;4.00;;;;;;;;;;5071427;28;20051;-72
2022/09/09 05:14:50;;;;;;;9.63;4.57;;;;;;;;;;5070550;28;20017;-73
2022/09/09 05:17:16;;;;;;;11.25;4.47;;;;;;;;;;5070192;28;20107;-72
2022/09/09 05:19:42;;;;;;;5.93;2.67;;;;;;;;;;5074338;28;20132;-71
2022/09/09 05:22:09;;;;;;;5.10;2.67;;;;;;;;;;5070938;28;20600;-73
2022/09/09 05:24:36;;;;;;;7.93;3.42;;;;;;;;;;5069781;28;20036;-69
2022/09/09 05:27:02;;;;;;;9.13;3.45;;;;;;;;;;5069675;28;20059;-72
2022/09/09 05:29:28;;;;;;;10.48;3.90;;;;;;;;;;5070072;28;20539;-72
2022/09/09 05:31:54;;;;;;;7.47;2.88;;;;;;;;;;5070365;28;20140;-71
2022/09/09 05:34:20;;;;;;;6.80;3.53;;;;;;;;;;5070387;28;20035;-72
2022/09/09 05:36:47;;;;;;;7.63;3.35;;;;;;;;;;5069779;28;20020;-72
2022/09/09 05:39:13;;;;;;;10.80;4.07;;;;;;;;;;5070473;28;20028;-73
2022/09/09 05:41:39;;;;;;;7.32;3.65;;;;;;;;;;5070008;28;20109;-72
2022/09/09 05:44:06;;;;;;;6.13;2.28;;;;;;;;;;5069407;28;20441;-71
2022/09/09 05:46:32;;;;;;;8.60;3.03;;;;;;;;;;5069779;28;20086;-71
2022/09/09 05:48:58;;;;;;;7.50;3.20;;;;;;;;;;5067731;28;20078;-72
2022/09/09 05:51:29;;;;;;;6.38;2.42;;;;;;;;;;5052853;28;20021;-71
2022/09/09 05:53:58;;;;;;;5.22;2.00;;;;;;;;;;5068715;28;20394;-71
2022/09/09 05:56:25;;;;;;;10.73;2.75;;;;;;;;;;5059662;28;20597;-71
2022/09/09 05:58:51;;;;;;;9.98;2.30;;;;;;;;;;5069396;28;20142;-71
2022/09/09 06:01:21;;;;;;;6.90;3.00;;;;;;;;;;5070033;28;20021;-71
2022/09/09 06:03:47;;;;;;;;;;;;;;;;;;5070097;28;20630;-70
2022/09/09 06:06:15;;;;;;;7.53;2.22;;;;;;;;;;5070768;28;19916;-72
2022/09/09 06:08:44;;;;;;;10.45;2.85;;;;;;;;;;5069827;28;20501;-70
2022/09/09 06:11:13;;;;;;;5.32;1.48;;;;;;;;;;5069623;28;20025;-72
2022/09/09 06:13:40;;;;;;;10.63;3.92;;;;;;;;;;5069960;28;20040;-72
2022/09/09 06:16:08;;;;;;;9.55;2.58;;;;;;;;;;5073182;28;20107;-71
2022/09/09 06:18:35;;;;;;;11.43;3.70;;;;;;;;;;5074725;28;20016;-73
2022/09/09 06:21:06;;;;;;;8.93;3.83;;;;;;;;;;5062494;28;20159;-71
2022/09/09 06:23:34;;;;;;;13.02;3.92;;;;;;;;;;5063741;28;20027;-72
2022/09/09 06:26:05;;;;;;;11.85;3.80;;;;;;;;;;5074318;28;20494;-73
2022/09/09 06:28:31;;;;;;;8.80;3.15;;;;;;;;;;5073723;28;20438;-72
2022/09/09 06:31:01;;;;;;;8.90;2.83;;;;;;;;;;5072366;28;20020;-72
2022/09/09 06:33:27;;;;;;;7.32;3.17;;;;;;;;;;5073469;28;20070;-70
2022/09/09 06:35:54;;;;;;;7.45;3.15;;;;;;;;;;5073965;28;20383;-70
2022/09/09 06:38:22;;;;;;;11.65;3.22;;;;;;;;;;5071843;28;20027;-71
2022/09/09 06:40:55;;;;;;;5.95;1.50;;;;;;;;;;5073634;28;20519;-71
2022/09/09 06:43:21;;;;;;;13.27;3.05;;;;;;;;;;5073681;28;20031;-71
2022/09/09 06:46:16;;;;;;;10.02;2.92;;;;;;;;;;5076729;28;20843;-72
2022/09/09 06:48:44;;;;;;;7.85;2.95;;;;;;;;;;5075277;28;20082;-71
2022/09/09 06:51:11;;;;;;;8.27;3.58;;;;;;;;;;5072085;28;20029;-71
2022/09/09 06:53:38;;;;;;;13.68;3.38;;;;;;;;;;5073236;28;20020;-71
2022/09/09 06:56:10;;;;;;;14.60;2.25;;;;;;;;;;5069488;28;20037;-72
2022/09/09 06:58:43;;;;;;;11.52;3.30;;;;;;;;;;5055425;28;20025;-72
2022/09/09 07:01:12;;;;;;;9.65;2.15;;;;;;;;;;5067433;28;20048;-72
2022/09/09 07:03:38;;;;;;;8.82;2.90;;;;;;;;;;5059448;28;20036;-72
2022/09/09 07:06:04;;;;;;;6.57;1.42;;;;;;;;;;5062239;28;20099;-71
2022/09/09 07:08:32;;;;;;;7.78;2.00;;;;;;;;;;5062453;28;20035;-71
2022/09/09 07:11:04;;;;;;;10.52;2.75;;;;;;;;;;5061462;28;20040;-71
2022/09/09 07:13:31;;;;;;;13.23;2.72;;;;;;;;;;5062280;28;20027;-72
2022/09/09 07:16:04;;;;;;;11.68;2.95;;;;;;;;;;5066136;28;20029;-71
2022/09/09 07:18:33;;;;;;;5.80;1.45;;;;;;;;;;5062775;28;20032;-71
2022/09/09 07:20:59;;;;;;;11.18;2.55;;;;;;;;;;5067763;28;20059;-70
2022/09/09 07:23:25;;;;;;;6.07;1.77;;;;;;;;;;5062436;28;20020;-71
2022/09/09 07:25:52;;;;;;;6.78;1.70;;;;;;;;;;5069557;28;20047;-72
2022/09/09 07:28:19;;;;;;;10.18;2.83;;;;;;;;;;5073217;28;20028;-72
2022/09/09 07:30:53;;;;;;;8.98;3.20;;;;;;;;;;5068393;28;20483;-72
2022/09/09 07:33:19;;;;;;;8.38;2.58;;;;;;;;;;5066962;28;20052;-73
2022/09/09 07:35:45;;;;;;;9.30;3.22;;;;;;;;;;5066903;28;20089;-72
2022/09/09 07:38:11;;;;;;;7.30;2.17;;;;;;;;;;5064279;28;20025;-71
2022/09/09 07:40:39;;;;;;;13.45;3.85;;;;;;;;;;5060258;28;20021;-72
2022/09/09 07:43:05;;;;;;;13.95;3.38;;;;;;;;;;5058966;28;20074;-72
2022/09/09 07:45:32;;;;;;;15.65;2.92;;;;;;;;;;5062688;28;20041;-72
2022/09/09 07:47:58;;;;;;;15.90;3.75;;;;;;;;;;5062381;28;20063;-72
2022/09/09 07:50:25;;;;;;;6.07;2.00;;;;;;;;;;5062510;28;20024;-72
2022/09/09 07:52:53;;;;;;;8.65;2.58;;;;;;;;;;5064104;28;20446;-73
2022/09/09 07:55:19;;;;;;;8.88;2.28;;;;;;;;;;5063538;28;20035;-72
2022/09/09 07:57:45;;;;;;;8.35;2.47;;;;;;;;;;5068041;28;20549;-72
2022/09/09 08:00:12;;;;;;;8.25;2.83;;;;;;;;;;5059536;28;20048;-74
2022/09/09 08:02:38;;;;;;;10.52;3.40;;;;;;;;;;5060235;28;20029;-73
2022/09/09 08:05:05;;;;;;;11.57;2.78;;;;;;;;;;5060397;28;20502;-72
2022/09/09 08:07:32;;;;;;;14.75;2.95;;;;;;;;;;5059787;28;20025;-72
2022/09/09 08:09:58;;;;;;;7.38;2.33;;;;;;;;;;5065099;28;20103;-72
2022/09/09 08:12:24;;;;;;;12.10;2.22;;;;;;;;;;5066024;28;20155;-71
2022/09/09 08:14:51;;;;;;;8.23;2.45;;;;;;;;;;5061805;28;20021;-71
2022/09/09 08:17:17;;;;;;;13.63;3.33;;;;;;;;;;5063163;28;20364;-72
2022/09/09 08:19:44;;;;;;;9.82;2.30;;;;;;;;;;5072334;28;20032;-72
2022/09/09 08:22:10;;;;;;;9.27;2.33;;;;;;;;;;5070497;28;20139;-72
2022/09/09 08:24:40;;;;;;;8.95;2.33;;;;;;;;;;5070213;28;20476;-72
2022/09/09 08:27:06;;;;;;;14.10;3.17;;;;;;;;;;5072912;28;20459;-73
2022/09/09 08:29:32;;;;;;;11.85;2.92;;;;;;;;;;5059833;28;20107;-72
2022/09/09 08:31:58;;;;;;;8.40;2.65;;;;;;;;;;5068263;28;20609;-71
2022/09/09 08:34:26;;;;;;;6.30;1.70;;;;;;;;;;5069963;28;20103;-72
2022/09/09 08:36:52;;;;;;;13.90;2.97;;;;;;;;;;5061583;28;20031;-71
2022/09/09 08:39:20;;;;;;;9.15;2.47;;;;;;;;;;5060900;28;20024;-73
2022/09/09 08:42:13;;;;;;;10.68;3.22;;;;;;;;;;5062692;28;20021;-71
2022/09/09 08:44:47;;;;;;;10.40;2.08;;;;;;;;;;5070584;28;20040;-72
2022/09/09 08:47:31;;;;;;;9.30;2.95;;;;;;;;;;5070863;28;20036;-71
2022/09/09 08:50:04;;;;;;;14.10;2.72;;;;;;;;;;5059947;28;20079;-73
2022/09/09 08:52:36;;;;;;;11.88;2.85;;;;;;;;;;5069989;28;20016;-73
2022/09/09 08:55:21;;;;;;;10.07;2.63;;;;;;;;;;5070521;28;20029;-71
2022/09/09 08:57:49;;;;;;;11.07;1.90;;;;;;;;;;5070974;28;20051;-70
2022/09/09 09:00:16;;;;;;;7.50;1.55;;;;;;;;;;5051062;28;20025;-72
2022/09/09 09:02:51;;;;;;;10.93;2.25;;;;;;;;;;5058776;28;20029;-72
2022/09/09 09:05:17;;;;;;;7.85;1.48;;;;;;;;;;5059052;28;20100;-74
2022/09/09 09:07:49;;;;;;;5.47;1.40;;;;;;;;;;5059719;28;20020;-75
2022/09/09 09:10:34;;;;;;;12.80;2.17;;;;;;;;;;5060149;28;20082;-73
2022/09/09 09:13:01;;;;;;;5.82;1.50;;;;;;;;;;5057140;28;20104;-74
2022/09/09 09:15:36;;;;;;;7.50;1.40;;;;;;;;;;5055845;28;20029;-76
2022/09/09 09:18:02;;;;;;;8.82;2.17;;;;;;;;;;5057108;28;20072;-74
2022/09/09 09:20:46;;;;;;;8.65;1.58;;;;;;;;;;5056316;28;20060;-74
2022/09/09 09:23:19;;;;;;;8.90;1.83;;;;;;;;;;5053694;28;20104;-74
2022/09/09 09:25:45;;;;;;;10.20;1.95;;;;;;;;;;5054537;28;20079;-75
2022/09/09 09:28:26;;;;;;;7.45;1.45;;;;;;;;;;5055265;28;20160;-73
2022/09/09 09:31:09;;;;;;;7.43;1.98;;;;;;;;;;5053020;28;20036;-74
2022/09/09 09:33:47;;;;;;;11.30;2.30;;;;;;;;;;5054663;28;20036;-76
2022/09/09 09:36:16;;;;;;;6.03;1.15;;;;;;;;;;5057548;28;20025;-74
2022/09/09 09:38:59;;;;;;;6.07;1.47;;;;;;;;;;5055325;28;20032;-74
2022/09/09 09:41:43;;;;;;;6.80;1.65;;;;;;;;;;5057653;28;20679;-76
2022/09/09 09:44:28;;;;;;;6.90;1.30;;;;;;;;;;5054858;28;20126;-74
2022/09/09 09:47:06;;;;;;;9.73;2.28;;;;;;;;;;5055473;28;20033;-75
2022/09/09 09:49:32;;;;;;;6.28;1.52;;;;;;;;;;5054696;28;20154;-74
2022/09/09 09:52:05;;;;;;;10.30;2.30;;;;;;;;;;5054132;28;20037;-75
2022/09/09 09:54:35;;;;;;;15.05;2.53;;;;;;;;;;5064479;28;20032;-73
2022/09/09 09:57:15;;;;;;;9.00;1.50;;;;;;;;;;5066956;28;20107;-73
2022/09/09 09:59:42;;;;;;;13.45;1.85;;;;;;;;;;5067768;28;20174;-74
2022/09/09 10:02:26;;;;;;;8.70;2.40;;;;;;;;;;5068188;28;20058;-74
2022/09/09 10:05:28;;;;;;;7.18;2.03;;;;;;;;;;5069227;28;20047;-72
2022/09/09 10:08:24;;;;;;;9.95;2.30;;;;;;;;;;5106834;28;20031;-74
2022/09/09 10:10:50;;;;;;;11.40;2.58;;;;;;;;;;5040180;28;20040;-73
2022/09/09 10:13:21;;;;;;;6.85;1.40;;;;;;;;;;5069937;28;20032;-73
2022/09/09 10:15:50;;;;;;;13.60;2.20;;;;;;;;;;5068654;28;20044;-73
2022/09/09 10:18:35;;;;;;;8.27;1.58;;;;;;;;;;5068666;28;20025;-75
2022/09/09 10:21:11;;;;;;;4.97;1.88;;;;;;;;;;5070913;28;20049;-74
2022/09/09 10:23:45;;;;;;;8.93;2.58;;;;;;;;;;5063493;28;20035;-73
2022/09/09 10:26:16;;;;;;;7.65;1.92;;;;;;;;;;5057858;28;20052;-74
2022/09/09 10:28:47;;;;;;;10.18;2.38;;;;;;;;;;5053186;28;20151;-75
2022/09/09 10:31:32;;;;;;;8.68;2.03;;;;;;;;;;5053104;28;20067;-74
2022/09/09 10:34:24;;;;;;;6.20;1.67;;;;;;;;;;5055633;28;20021;-74
2022/09/09 10:36:50;;;;;;;8.35;2.58;;;;;;;;;;5062044;28;20044;-73
2022/09/09 10:39:16;;;;;;;7.97;1.50;;;;;;;;;;5064692;28;20084;-74
2022/09/09 10:41:43;;;;;;;8.43;2.03;;;;;;;;;;5062396;28;20058;-73
2022/09/09 10:44:18;;;;;;;9.30;2.08;;;;;;;;;;5069213;28;20055;-74
2022/09/09 10:46:46;;;;;;;4.38;1.42;;;;;;;;;;5070012;28;20376;-72
2022/09/09 10:49:14;;;;;;;11.85;2.45;;;;;;;;;;5059161;28;20051;-72
2022/09/09 10:51:49;;;;;;;7.40;2.05;;;;;;;;;;5059144;28;20219;-73
2022/09/09 10:54:29;;;;;;;12.65;2.40;;;;;;;;;;5060062;28;20056;-73
2022/09/09 10:56:57;;;;;;;12.85;3.20;;;;;;;;;;5062637;28;20123;-74
2022/09/09 10:59:28;;;;;;;8.57;1.83;;;;;;;;;;5060406;28;20035;-73
2022/09/09 11:02:03;;;;;;;11.75;1.83;;;;;;;;;;5060116;28;20370;-74
2022/09/09 11:04:34;;;;;;;10.20;2.80;;;;;;;;;;5067833;28;20131;-72
2022/09/09 11:07:03;;;;;;;7.65;1.48;;;;;;;;;;5065690;28;20036;-73
2022/09/09 11:09:31;;;;;;;13.32;2.17;;;;;;;;;;5068299;28;20017;-73
2022/09/09 11:11:59;;;;;;;7.38;1.65;;;;;;;;;;5061765;28;20025;-72
2022/09/09 11:14:28;;;;;;;12.13;2.88;;;;;;;;;;5069183;28;20024;-74
2022/09/09 11:16:56;;;;;;;12.85;2.08;;;;;;;;;;5073266;28;20029;-72
2022/09/09 11:19:49;;;;;;;7.90;1.60;;;;;;;;;;5072463;28;20057;-74
2022/09/09 11:22:23;;;;;;;7.00;2.15;;;;;;;;;;5069350;28;20100;-72
2022/09/09 11:25:00;;;;;;;8.38;2.10;;;;;;;;;;5070811;28;20101;-75
2022/09/09 11:27:36;;;;;;;8.77;2.88;;;;;;;;;;5069537;28;20367;-73
2022/09/09 11:30:06;;;;;;;8.00;1.95;;;;;;;;;;5071955;28;20024;-74
2022/09/09 11:32:44;;;;;;;11.52;2.70;;;;;;;;;;5073272;28;20498;-73
2022/09/09 11:35:19;;;;;;;10.27;1.92;;;;;;;;;;5072154;28;20032;-74
2022/09/09 11:37:57;;;;;;;8.68;1.98;;;;;;;;;;5063212;28;20127;-73
2022/09/09 11:40:25;;;;;;;9.93;2.42;;;;;;;;;;5067846;28;20509;-74
2022/09/09 11:43:04;;;;;;;13.80;2.97;;;;;;;;;;5069076;28;20028;-74
2022/09/09 11:45:30;;;;;;;8.95;2.35;;;;;;;;;;5068052;28;20040;-74
2022/09/09 11:47:57;;;;;;;6.95;1.83;;;;;;;;;;5057869;28;20032;-73
2022/09/09 11:50:23;;;;;;;11.43;2.42;;;;;;;;;;5068826;28;20018;-74
2022/09/09 11:52:49;;;;;;;7.07;1.38;;;;;;;;;;5069405;28;20075;-72
2022/09/09 11:55:29;;;;;;;6.38;1.52;;;;;;;;;;5071542;28;20024;-74
2022/09/09 11:58:02;;;;;;;6.30;1.15;;;;;;;;;;5052020;28;20566;-73
2022/09/09 12:00:43;;;;;;;8.38;1.60;;;;;;;;;;5066002;28;20024;-75
2022/09/09 12:03:28;;;;;;;7.03;1.58;;;;;;;;;;5050430;28;20112;-73
2022/09/09 12:05:55;;;;;;;4.93;1.67;;;;;;;;;;5068025;28;20033;-74
2022/09/09 12:08:27;;;;;;;8.55;1.73;;;;;;;;;;5071200;28;20020;-74
2022/09/09 12:10:57;;;;;;;7.18;1.75;;;;;;;;;;5067494;28;20040;-74
2022/09/09 12:13:23;;;;;;;;;;;;;;;;;;5069672;28;20028;-73
2022/09/09 12:15:53;;;;;;;5.32;1.38;;;;;;;;;;5070536;28;20271;-73
2022/09/09 12:18:19;;;;;;;;;;;;;;;;;;5071087;28;20025;-71
2022/09/09 12:20:57;;;;;;;6.60;1.70;;;;;;;;;;5069782;28;19916;-72
2022/09/09 12:23:32;;;;;;;6.38;1.75;;;;;;;;;;5071146;28;20158;-73
2022/09/09 12:26:17;;;;;;;6.60;1.98;;;;;;;;;;5063530;28;20040;-72
2022/09/09 12:28:48;;;;;;;5.65;1.92;;;;;;;;;;5070772;28;20051;-73
2022/09/09 12:31:17;;;;;;;6.05;1.40;;;;;;;;;;5072554;28;20638;-73
2022/09/09 12:33:45;;;;;;;5.93;1.07;;;;;;;;;;5073472;28;20036;-76
2022/09/09 12:36:19;;;;;;;9.88;1.60;;;;;;;;;;5071982;28;20024;-73
2022/09/09 12:38:45;;;;;;;5.38;1.60;;;;;;;;;;5069753;28;20054;-74
2022/09/09 12:41:20;;;;;;;7.07;1.92;;;;;;;;;;5071914;28;20025;-73
2022/09/09 12:43:46;;;;;;;4.55;1.20;;;;;;;;;;5070506;28;20039;-75
2022/09/09 12:46:32;;;;;;;4.78;1.42;;;;;;;;;;5071878;28;20040;-74
2022/09/09 12:48:58;;;;;;;6.13;1.75;;;;;;;;;;5071721;28;20038;-74
2022/09/09 12:51:27;;;;;;;5.20;1.48;;;;;;;;;;5072207;28;20120;-74
2022/09/09 12:53:53;;;;;;;5.10;1.33;;;;;;;;;;5071778;28;20028;-73
2022/09/09 12:56:20;;;;;;;4.85;1.60;;;;;;;;;;5072003;28;20028;-74
2022/09/09 12:58:48;;;;;;;4.00;1.60;;;;;;;;;;5072229;28;20508;-74
2022/09/09 13:01:22;;;;;;;4.60;1.35;;;;;;;;;;5067329;28;20024;-72
2022/09/09 13:03:48;;;;;;;5.57;2.08;;;;;;;;;;5069932;28;20036;-74
2022/09/09 13:06:24;;;;;;;5.15;1.40;;;;;;;;;;5070784;28;20040;-73
2022/09/09 13:08:51;;;;;;;7.65;1.40;;;;;;;;;;5070208;28;20021;-73
2022/09/09 13:11:20;;;;;;;8.02;1.63;;;;;;;;;;5070673;28;20059;-74
2022/09/09 13:13:51;;;;;;;6.18;1.98;;;;;;;;;;5070472;28;20031;-73
2022/09/09 13:16:31;;;;;;;5.03;1.63;;;;;;;;;;5070987;28;20412;-75
2022/09/09 13:18:58;;;;;;;4.35;1.73;;;;;;;;;;5068228;28;20032;-75
2022/09/09 13:21:34;;;;;;;4.60;1.10;;;;;;;;;;5062393;28;20079;-75
2022/09/09 13:24:03;;;;;;;5.10;1.08;;;;;;;;;;5070514;28;20102;-73
2022/09/09 13:26:29;;;;;;;3.97;1.30;;;;;;;;;;5070426;28;20107;-75
2022/09/09 13:28:56;;;;;;;5.53;1.85;;;;;;;;;;5053567;28;20035;-73
2022/09/09 13:31:34;;;;;;;3.28;0.85;;;;;;;;;;5071049;28;20115;-75
2022/09/09 13:34:00;;;;;;;4.97;1.60;;;;;;;;;;5071235;28;20029;-73
2022/09/09 13:36:34;;;;;;;8.40;1.67;;;;;;;;;;5071058;28;20033;-74
2022/09/09 13:39:02;;;;;;;6.25;1.58;;;;;;;;;;5070943;28;20036;-72
2022/09/09 13:41:30;;;;;;;4.75;1.73;;;;;;;;;;5070641;28;20474;-74
2022/09/09 13:43:57;;;;;;;4.68;1.52;;;;;;;;;;5070276;28;20118;-73
2022/09/09 13:46:30;;;;;;;9.07;2.13;;;;;;;;;;5070680;28;20043;-75
2022/09/09 13:49:18;;;;;;;6.32;1.63;;;;;;;;;;5070987;28;20024;-75
2022/09/09 13:51:46;;;;;;;6.30;1.60;;;;;;;;;;5050692;28;20448;-75
2022/09/09 13:54:13;;;;;;;6.43;1.85;;;;;;;;;;5065414;28;20024;-76
2022/09/09 13:56:40;;;;;;;6.72;1.42;;;;;;;;;;5071009;28;20021;-75
2022/09/09 13:59:07;;;;;;;7.72;1.40;;;;;;;;;;5070520;28;20025;-75
2022/09/09 14:01:34;;;;;;;5.45;1.90;;;;;;;;;;5059575;28;20029;-73
2022/09/09 14:04:00;;;;;;;3.15;0.85;;;;;;;;;;5065299;28;20035;-73
2022/09/09 14:06:27;;;;;;;4.10;0.90;;;;;;;;;;5060744;28;20052;-74
2022/09/09 14:08:54;;;;;;;3.58;0.82;;;;;;;;;;5060209;28;20540;-74
2022/09/09 14:11:21;;;;;;;8.13;1.45;;;;;;;;;;5063149;28;20696;-72
2022/09/09 14:13:49;;;;;;;5.43;1.50;;;;;;;;;;5058345;28;20143;-74
2022/09/09 14:16:15;;;;;;;5.22;1.35;;;;;;;;;;5070790;28;20041;-74
2022/09/09 14:18:41;;;;;;;4.22;1.05;;;;;;;;;;5064835;28;20028;-73
2022/09/09 14:21:08;;;;;;;4.57;1.05;;;;;;;;;;5059692;28;20099;-73
2022/09/09 14:23:35;;;;;;;4.75;1.17;;;;;;;;;;5063190;28;20109;-75
2022/09/09 14:26:01;;;;;;;4.22;1.40;;;;;;;;;;5066973;28;20037;-75
2022/09/09 14:28:29;;;;;;;4.10;0.80;;;;;;;;;;5059934;28;20024;-73
2022/09/09 14:30:55;;;;;;;5.47;1.38;;;;;;;;;;5066865;28;20024;-74
2022/09/09 14:33:21;;;;;;;4.57;1.20;;;;;;;;;;5061430;28;20017;-75
2022/09/09 14:35:48;;;;;;;4.97;1.40;;;;;;;;;;5063079;28;20770;-73
2022/09/09 14:38:14;;;;;;;3.58;1.10;;;;;;;;;;5074827;28;20036;-74
2022/09/09 14:40:40;;;;;;;5.80;1.52;;;;;;;;;;5071310;28;20395;-74
2022/09/09 14:43:11;;;;;;;7.78;1.48;;;;;;;;;;5060566;28;20387;-75
2022/09/09 14:45:43;;;;;;;4.22;1.25;;;;;;;;;;5065214;28;20036;-74
2022/09/09 14:48:09;;;;;;;6.20;1.50;;;;;;;;;;5070081;28;20032;-74
2022/09/09 14:50:39;;;;;;;5.32;0.90;;;;;;;;;;5070853;28;20028;-73
2022/09/09 14:53:05;;;;;;;9.77;1.10;;;;;;;;;;5061459;28;20071;-74
2022/09/09 14:55:31;;;;;;;5.82;0.98;;;;;;;;;;5063034;28;20432;-75
2022/09/09 14:57:58;;;;;;;3.60;0.90;;;;;;;;;;5066679;28;20111;-74
2022/09/09 15:00:24;;;;;;;5.78;1.45;;;;;;;;;;5060096;28;20046;-74